createdAt,value
2022-12-13T00:01:50.422Z,97523.13
2022-12-13T00:04:52.343Z,97520.66
2022-12-13T00:07:54.382Z,97517.09
2022-12-13T00:11:03.477Z,97522.47
2022-12-13T00:14:05.413Z,97516.66
2022-12-13T00:17:07.520Z,97523.63
2022-12-13T00:20:09.664Z,97524.31
2022-12-13T00:23:11.654Z,97530.19
2022-12-13T00:26:15.896Z,97529.78
2022-12-13T00:29:17.766Z,97535.56
2022-12-13T00:32:19.667Z,97527.59
2022-12-13T00:35:21.611Z,97524.97
2022-12-13T00:38:24.252Z,97526.44
2022-12-13T00:41:31.978Z,97532.00
2022-12-13T00:44:33.756Z,97532.09
2022-12-13T00:47:36.423Z,97533.38
2022-12-13T00:50:39.046Z,97538.38
2022-12-13T00:53:40.828Z,97534.88
2022-12-13T00:56:42.701Z,97543.81
2022-12-13T00:59:44.480Z,97540.31
2022-12-13T01:02:46.638Z,97546.81
2022-12-13T01:06:14.288Z,97543.56
2022-12-13T01:09:16.347Z,97539.84
2022-12-13T01:12:18.063Z,97535.09
2022-12-13T01:15:19.911Z,97536.78
2022-12-13T01:18:21.745Z,97536.94
2022-12-13T01:21:23.557Z,97524.97
2022-12-13T01:24:26.225Z,97530.03
2022-12-13T01:27:28.390Z,97535.38
2022-12-13T01:30:30.236Z,97537.81
2022-12-13T01:33:32.915Z,97545.44
2022-12-13T01:36:38.173Z,97549.59
2022-12-13T01:39:40.228Z,97547.25
2022-12-13T01:42:42.097Z,97546.50
2022-12-13T01:45:44.314Z,97549.22
2022-12-13T01:48:54.690Z,97543.56
2022-12-13T01:52:00.103Z,97551.88
2022-12-13T01:55:04.498Z,97553.81
2022-12-13T01:58:06.769Z,97557.91
2022-12-13T02:01:09.076Z,97555.19
2022-12-13T02:04:10.952Z,97561.06
2022-12-13T02:07:22.886Z,97558.03
2022-12-13T02:10:26.236Z,97569.34
2022-12-13T02:13:28.036Z,97586.88
2022-12-13T02:17:01.942Z,97569.22
2022-12-13T02:20:12.930Z,97575.78
2022-12-13T02:23:26.579Z,97573.84
2022-12-13T02:26:28.471Z,97573.59
2022-12-13T02:29:51.431Z,97564.78
2022-12-13T02:33:26.733Z,97569.38
2022-12-13T02:36:36.255Z,97570.66
2022-12-13T02:39:47.949Z,97567.34
2022-12-13T02:43:09.935Z,97569.44
2022-12-13T02:46:17.158Z,97570.69
2022-12-13T02:49:20.053Z,97577.28
2022-12-13T02:52:26.352Z,97568.75
2022-12-13T02:55:28.971Z,97574.50
2022-12-13T02:58:36.730Z,97569.78
2022-12-13T03:02:10.283Z,97564.72
2022-12-13T03:05:56.913Z,97568.72
2022-12-13T03:09:16.161Z,97567.00
2022-12-13T03:12:53.308Z,97575.22
2022-12-13T03:16:00.326Z,97586.06
2022-12-13T03:19:07.316Z,97575.88
2022-12-13T03:22:09.047Z,97577.72
2022-12-13T03:25:11.018Z,97578.84
2022-12-13T03:28:13.155Z,97578.78
2022-12-13T03:31:15.682Z,97586.00
2022-12-13T03:34:23.028Z,97581.63
2022-12-13T03:37:25.885Z,97582.03
2022-12-13T03:40:28.553Z,97584.66
2022-12-13T03:43:31.228Z,97581.78
2022-12-13T03:46:33.591Z,97578.34
2022-12-13T03:49:42.377Z,97589.56
2022-12-13T03:52:44.521Z,97582.88
2022-12-13T03:55:46.263Z,97582.56
2022-12-13T03:58:48.036Z,97581.44
2022-12-13T04:01:49.801Z,97581.13
2022-12-13T04:04:52.196Z,97578.63
2022-12-13T04:08:00.970Z,97583.09
2022-12-13T04:11:22.059Z,97584.91
2022-12-13T04:14:23.889Z,97591.78
2022-12-13T04:17:25.862Z,97587.56
2022-12-13T04:20:27.821Z,97592.47
2022-12-13T04:23:29.594Z,97591.28
2022-12-13T04:26:31.385Z,97588.25
2022-12-13T04:29:33.744Z,97596.25
2022-12-13T04:32:35.940Z,97583.13
2022-12-13T04:35:37.848Z,97591.56
2022-12-13T04:38:39.766Z,97590.34
2022-12-13T04:41:41.585Z,97585.06
2022-12-13T04:44:46.047Z,97586.75
2022-12-13T04:47:48.126Z,97584.34
2022-12-13T04:50:50.327Z,97584.91
2022-12-13T04:53:52.685Z,97585.41
2022-12-13T04:56:54.811Z,97589.25
2022-12-13T04:59:56.741Z,97590.16
2022-12-13T05:02:58.587Z,97588.56
2022-12-13T05:06:03.984Z,97585.97
2022-12-13T05:09:11.249Z,97587.38
2022-12-13T05:12:22.026Z,97589.31
2022-12-13T05:15:25.310Z,97585.81
2022-12-13T05:18:27.805Z,97590.97
2022-12-13T05:21:29.671Z,97594.50
2022-12-13T05:24:32.084Z,97599.38
2022-12-13T05:27:33.990Z,97597.19
2022-12-13T05:30:38.893Z,97600.78
2022-12-13T05:33:41.072Z,97592.72
2022-12-13T05:36:42.969Z,97604.81
2022-12-13T05:39:44.861Z,97599.22
2022-12-13T05:42:50.629Z,97604.38
2022-12-13T05:45:53.197Z,97608.41
2022-12-13T05:48:55.745Z,97604.81
2022-12-13T05:52:02.498Z,97608.41
2022-12-13T05:55:06.689Z,97613.00
2022-12-13T05:58:13.268Z,97610.53
2022-12-13T06:01:17.550Z,97612.88
2022-12-13T06:04:22.444Z,97615.41
2022-12-13T06:07:25.377Z,97602.69
2022-12-13T06:10:34.218Z,97611.94
2022-12-13T06:13:42.452Z,97621.72
2022-12-13T06:16:47.527Z,97625.50
2022-12-13T06:19:55.786Z,97631.09
2022-12-13T06:22:59.232Z,97632.97
2022-12-13T06:26:10.483Z,97627.50
2022-12-13T06:29:34.129Z,97631.78
2022-12-13T06:32:41.174Z,97630.06
2022-12-13T06:35:46.494Z,97634.19
2022-12-13T06:38:49.505Z,97637.78
2022-12-13T06:41:54.562Z,97635.81
2022-12-13T06:44:58.574Z,97629.00
2022-12-13T06:48:00.528Z,97634.28
2022-12-13T06:51:04.035Z,97639.44
2022-12-13T06:54:06.008Z,97637.38
2022-12-13T06:57:08.713Z,97644.63
2022-12-13T07:00:11.427Z,97641.06
2022-12-13T07:03:13.516Z,97639.81
2022-12-13T07:06:18.281Z,97635.13
2022-12-13T07:09:20.265Z,97646.72
2022-12-13T07:12:23.607Z,97644.09
2022-12-13T07:15:27.222Z,97645.66
2022-12-13T07:18:32.768Z,97652.09
2022-12-13T07:21:36.720Z,97650.13
2022-12-13T07:24:38.751Z,97653.59
2022-12-13T07:27:41.043Z,97655.81
2022-12-13T07:30:43.177Z,97655.31
2022-12-13T07:33:45.053Z,97666.50
2022-12-13T07:36:50.836Z,97670.34
2022-12-13T07:39:53.223Z,97665.63
2022-12-13T07:42:57.342Z,97664.00
2022-12-13T07:46:04.999Z,97658.97
2022-12-13T07:49:06.956Z,97664.38
2022-12-13T07:52:12.668Z,97668.72
2022-12-13T07:55:15.229Z,97679.03
2022-12-13T07:58:17.217Z,97675.84
2022-12-13T08:01:19.312Z,97676.91
2022-12-13T08:04:21.474Z,97670.88
2022-12-13T08:07:23.359Z,97678.50
2022-12-13T08:10:25.385Z,97671.25
2022-12-13T08:13:27.242Z,97667.88
2022-12-13T08:16:29.832Z,97673.44
2022-12-13T08:19:32.166Z,97675.84
2022-12-13T08:22:35.956Z,97683.75
2022-12-13T08:25:38.424Z,97689.88
2022-12-13T08:28:40.590Z,97683.72
2022-12-13T08:31:42.731Z,97682.69
2022-12-13T08:34:46.088Z,97689.72
2022-12-13T08:37:47.888Z,97696.28
2022-12-13T08:40:51.541Z,97696.63
2022-12-13T08:43:54.433Z,97699.31
2022-12-13T08:46:56.485Z,97702.06
2022-12-13T08:50:02.869Z,97692.56
2022-12-13T08:53:06.035Z,97697.06
2022-12-13T08:56:11.433Z,97697.53
2022-12-13T08:59:13.213Z,97685.66
2022-12-13T09:02:18.390Z,97692.91
2022-12-13T09:05:33.060Z,97693.94
2022-12-13T09:08:38.387Z,97701.88
2022-12-13T09:11:41.115Z,97703.16
2022-12-13T09:14:45.291Z,97704.41
2022-12-13T09:17:52.471Z,97702.06
2022-12-13T09:20:55.159Z,97691.41
2022-12-13T09:24:24.214Z,97695.69
2022-12-13T09:27:28.826Z,97700.53
2022-12-13T09:30:31.590Z,97694.28
2022-12-13T09:33:41.298Z,97694.34
2022-12-13T09:36:43.740Z,97685.44
2022-12-13T09:39:47.554Z,97683.31
2022-12-13T09:43:13.403Z,97682.28
2022-12-13T09:46:44.430Z,97680.09
2022-12-13T09:49:52.243Z,97676.34
2022-12-13T09:52:59.964Z,97675.44
2022-12-13T09:56:11.073Z,97670.53
2022-12-13T09:59:14.714Z,97678.16
2022-12-13T10:02:16.787Z,97668.31
2022-12-13T10:05:33.712Z,97676.41
2022-12-13T10:08:57.368Z,97676.19
2022-12-13T10:12:00.397Z,97664.16
2022-12-13T10:15:02.957Z,97658.97
2022-12-13T10:18:06.606Z,97648.31
2022-12-13T10:21:12.422Z,97664.19
2022-12-13T10:24:30.062Z,97650.97
2022-12-13T10:27:40.598Z,97654.66
2022-12-13T10:30:46.401Z,97646.56
2022-12-13T10:33:55.841Z,97649.06
2022-12-13T10:36:59.629Z,97649.72
2022-12-13T10:40:02.136Z,97637.72
2022-12-13T10:43:07.638Z,97641.03
2022-12-13T10:46:18.342Z,97643.34
2022-12-13T10:49:36.040Z,97637.41
2022-12-13T10:52:48.355Z,97637.31
2022-12-13T10:55:55.066Z,97638.09
2022-12-13T10:59:23.271Z,97633.41
2022-12-13T11:02:37.967Z,97625.06
2022-12-13T11:05:41.374Z,97623.56
2022-12-13T11:08:43.476Z,97619.56
2022-12-13T11:11:45.912Z,97612.28
2022-12-13T11:15:01.354Z,97611.31
2022-12-13T11:18:10.923Z,97605.66
2022-12-13T11:21:14.376Z,97607.13
2022-12-13T11:24:38.013Z,97605.81
2022-12-13T11:27:49.545Z,97608.41
2022-12-13T11:31:08.398Z,97603.63
2022-12-13T11:34:19.306Z,97594.03
2022-12-13T11:37:30.894Z,97591.97
2022-12-13T11:40:33.487Z,97592.66
2022-12-13T11:43:53.965Z,97594.69
2022-12-13T11:46:58.919Z,97591.28
2022-12-13T11:50:04.865Z,97587.19
2022-12-13T11:53:19.847Z,97583.59
2022-12-13T11:56:29.728Z,97584.09
2022-12-13T11:59:39.705Z,97581.72
2022-12-13T12:02:46.904Z,97587.41
2022-12-13T12:05:56.136Z,97584.63
2022-12-13T12:09:05.031Z,97591.22
2022-12-13T12:12:36.125Z,97588.31
2022-12-13T12:15:57.357Z,97584.34
2022-12-13T12:19:01.198Z,97581.47
2022-12-13T12:22:16.418Z,97576.53
2022-12-13T12:25:54.075Z,97581.56
2022-12-13T12:29:18.437Z,97572.44
2022-12-13T12:32:20.556Z,97572.56
2022-12-13T12:36:04.756Z,97574.66
2022-12-13T12:39:13.404Z,97573.78
2022-12-13T12:43:13.443Z,97581.31
2022-12-13T12:46:42.160Z,97576.09
2022-12-13T12:50:02.633Z,97582.69
2022-12-13T12:53:27.382Z,97582.31
2022-12-13T12:56:49.995Z,97576.91
2022-12-13T13:00:05.154Z,97585.19
2022-12-13T13:03:18.840Z,97585.41
2022-12-13T13:06:29.183Z,97586.81
2022-12-13T13:09:31.899Z,97594.91
2022-12-13T13:12:43.144Z,97590.88
2022-12-13T13:15:54.490Z,97593.19
2022-12-13T13:19:10.916Z,97601.38
2022-12-13T13:22:44.129Z,97602.81
2022-12-13T13:29:27.409Z,97591.66
2022-12-13T13:32:31.415Z,97592.16
2022-12-13T13:35:36.803Z,97606.00
2022-12-13T13:38:50.162Z,97611.66
2022-12-13T13:41:52.186Z,97620.09
2022-12-13T13:45:00.309Z,97616.94
2022-12-13T13:48:18.747Z,97617.16
2022-12-13T13:52:08.791Z,97617.03
2022-12-13T13:55:34.071Z,97623.13
2022-12-13T13:58:39.105Z,97629.44
2022-12-13T14:02:02.452Z,97622.91
2022-12-13T14:05:08.771Z,97630.72
2022-12-13T14:08:24.410Z,97623.91
2022-12-13T14:11:35.413Z,97626.38
2022-12-13T14:14:52.582Z,97622.91
2022-12-13T14:18:06.834Z,97624.34
2022-12-13T14:21:22.689Z,97632.13
2022-12-13T14:24:26.060Z,97633.00
2022-12-13T14:27:37.084Z,97632.19
2022-12-13T14:30:42.723Z,97629.03
2022-12-13T14:33:52.183Z,97632.81
2022-12-13T14:36:59.266Z,97624.22
2022-12-13T14:40:02.840Z,97630.16
2022-12-13T14:43:06.316Z,97625.94
2022-12-13T14:46:08.987Z,97630.06
2022-12-13T14:49:12.536Z,97630.00
2022-12-13T14:52:26.695Z,97641.59
2022-12-13T14:55:34.465Z,97636.59
2022-12-13T14:58:37.316Z,97638.66
2022-12-13T15:01:41.186Z,97657.66
2022-12-13T15:04:43.542Z,97642.53
2022-12-13T15:07:48.752Z,97647.56
2022-12-13T15:10:56.575Z,97651.06
2022-12-13T15:13:59.105Z,97653.88
2022-12-13T15:17:01.067Z,97661.41
2022-12-13T15:20:31.552Z,97658.59
2022-12-13T15:23:49.500Z,97654.84
2022-12-13T15:26:59.889Z,97656.69
2022-12-13T15:30:02.272Z,97665.59
2022-12-13T15:33:19.380Z,97662.75
2022-12-13T15:36:27.144Z,97663.09
2022-12-13T15:39:31.429Z,97667.16
2022-12-13T15:42:35.583Z,97657.34
2022-12-13T15:45:37.861Z,97656.19
2022-12-13T15:48:48.608Z,97656.47
2022-12-13T15:51:59.638Z,97654.34
2022-12-13T15:55:08.595Z,97650.97
2022-12-13T15:58:26.241Z,97658.06
2022-12-13T16:01:32.088Z,97649.88
2022-12-13T16:04:34.535Z,97658.13
2022-12-13T16:07:40.077Z,97653.09
2022-12-13T16:10:49.528Z,97663.06
2022-12-13T16:13:51.952Z,97659.75
2022-12-13T16:17:08.179Z,97665.66
2022-12-13T16:20:17.966Z,97657.19
2022-12-13T16:23:27.059Z,97657.06
2022-12-13T16:26:31.460Z,97667.66
2022-12-13T16:29:33.474Z,97659.03
2022-12-13T16:32:44.487Z,97664.25
2022-12-13T16:35:58.254Z,97667.28
2022-12-13T16:39:00.657Z,97665.63
2022-12-13T16:42:03.655Z,97665.38
2022-12-13T16:45:40.091Z,97680.41
2022-12-13T16:48:28.991Z,97672.28
2022-12-13T16:51:32.476Z,97674.13
2022-12-13T16:54:35.026Z,97672.56
2022-12-13T16:57:38.164Z,97682.22
2022-12-13T17:00:40.675Z,97680.13
2022-12-13T17:03:42.959Z,97682.44
2022-12-13T17:06:46.740Z,97677.44
2022-12-13T17:09:50.111Z,97677.59
2022-12-13T17:12:53.966Z,97676.22
2022-12-13T17:15:58.942Z,97676.13
2022-12-13T17:19:02.942Z,97671.97
2022-12-13T17:22:06.536Z,97684.06
2022-12-13T17:25:11.285Z,97685.19
2022-12-13T17:28:15.700Z,97691.13
2022-12-13T17:31:19.802Z,97691.53
2022-12-13T17:34:22.537Z,97695.66
2022-12-13T17:37:24.652Z,97703.22
2022-12-13T17:40:27.268Z,97707.25
2022-12-13T17:43:35.666Z,97696.53
2022-12-13T17:46:38.836Z,97697.25
2022-12-13T17:49:41.940Z,97699.22
2022-12-13T17:52:44.357Z,97699.28
2022-12-13T17:55:58.133Z,97695.50
2022-12-13T17:59:00.650Z,97698.91
2022-12-13T18:02:03.508Z,97706.13
2022-12-13T18:05:13.242Z,97709.72
2022-12-13T18:08:20.464Z,97707.56
2022-12-13T18:11:38.155Z,97701.13
2022-12-13T18:14:40.796Z,97702.78
2022-12-13T18:18:10.140Z,97702.66
2022-12-13T18:21:19.022Z,97701.44
2022-12-13T18:24:21.228Z,97698.38
2022-12-13T18:27:24.284Z,97702.34
2022-12-13T18:30:28.571Z,97699.97
2022-12-13T18:33:31.555Z,97695.19
2022-12-13T18:36:34.286Z,97686.63
2022-12-13T18:39:36.899Z,97685.28
2022-12-13T18:42:39.291Z,97690.66
2022-12-13T18:45:41.666Z,97685.44
2022-12-13T18:48:43.796Z,97688.41
2022-12-13T18:51:46.336Z,97690.06
2022-12-13T18:54:54.261Z,97696.38
2022-12-13T18:57:57.402Z,97695.38
2022-12-13T19:00:59.843Z,97697.25
2022-12-13T19:04:02.635Z,97697.25
2022-12-13T19:07:05.982Z,97706.00
2022-12-13T19:10:11.176Z,97697.72
2022-12-13T19:13:14.407Z,97704.69
2022-12-13T19:16:21.200Z,97705.03
2022-12-13T19:19:24.515Z,97707.84
2022-12-13T19:22:27.197Z,97719.41
2022-12-13T19:25:30.989Z,97713.47
2022-12-13T19:28:34.865Z,97713.84
2022-12-13T19:31:38.966Z,97708.13
2022-12-13T19:34:41.599Z,97712.38
2022-12-13T19:37:44.042Z,97715.84
2022-12-13T19:40:47.642Z,97719.25
2022-12-13T19:43:52.975Z,97721.41
2022-12-13T19:46:56.696Z,97716.84
2022-12-13T19:49:59.820Z,97718.50
2022-12-13T19:53:02.528Z,97725.41
2022-12-13T19:56:11.740Z,97712.03
2022-12-13T19:59:14.289Z,97728.06
2022-12-13T20:02:17.665Z,97724.94
2022-12-13T20:05:20.235Z,97723.16
2022-12-13T20:08:22.697Z,97723.94
2022-12-13T20:11:25.286Z,97736.22
2022-12-13T20:14:28.894Z,97727.91
2022-12-13T20:17:32.280Z,97720.75
2022-12-13T20:24:06.739Z,97710.47
2022-12-13T20:27:09.026Z,97703.59
2022-12-13T20:30:13.661Z,97717.47
2022-12-13T20:33:17.271Z,97706.66
2022-12-13T20:36:25.132Z,97701.84
2022-12-13T20:39:28.387Z,97698.22
2022-12-13T20:42:31.109Z,97695.53
2022-12-13T20:45:33.497Z,97697.38
2022-12-13T20:48:39.905Z,97702.03
2022-12-13T20:51:42.534Z,97691.84
2022-12-13T20:54:47.643Z,97697.09
2022-12-13T20:57:50.027Z,97693.56
2022-12-13T21:00:52.669Z,97695.25
2022-12-13T21:03:57.104Z,97698.41
2022-12-13T21:06:59.377Z,97695.81
2022-12-13T21:10:06.145Z,97688.31
2022-12-13T21:13:08.721Z,97697.66
2022-12-13T21:16:13.243Z,97695.31
2022-12-13T21:19:25.081Z,97696.13
2022-12-13T21:22:29.210Z,97695.81
2022-12-13T21:25:31.726Z,97697.38
2022-12-13T21:28:34.242Z,97711.00
2022-12-13T21:31:37.837Z,97708.41
2022-12-13T21:34:40.189Z,97710.03
2022-12-13T21:37:42.543Z,97717.75
2022-12-13T21:40:48.811Z,97713.00
2022-12-13T21:43:52.096Z,97715.72
2022-12-13T21:47:11.683Z,97714.28
2022-12-13T21:50:14.377Z,97715.28
2022-12-13T21:53:17.369Z,97701.56
2022-12-13T21:56:41.598Z,97701.66
2022-12-13T21:59:44.213Z,97703.28
2022-12-13T22:02:46.971Z,97696.03
2022-12-13T22:05:48.958Z,97689.44
2022-12-13T22:08:51.023Z,97697.13
2022-12-13T22:11:53.232Z,97695.50
2022-12-13T22:14:57.126Z,97682.78
2022-12-13T22:17:59.758Z,97681.56
2022-12-13T22:21:03.670Z,97675.50
2022-12-13T22:24:07.130Z,97667.16
2022-12-13T22:27:09.075Z,97656.94
2022-12-13T22:30:11.616Z,97662.16
2022-12-13T22:33:13.506Z,97663.06
2022-12-13T22:36:15.874Z,97652.25
2022-12-13T22:39:19.565Z,97661.75
2022-12-13T22:42:21.909Z,97660.16
2022-12-13T22:45:23.982Z,97654.63
2022-12-13T22:48:26.296Z,97651.84
2022-12-13T22:51:28.438Z,97643.22
2022-12-13T22:54:30.255Z,97632.13
2022-12-13T22:57:32.050Z,97635.44
2022-12-13T23:00:33.885Z,97635.75
2022-12-13T23:03:37.221Z,97627.03
2022-12-13T23:06:40.624Z,97630.53
2022-12-13T23:09:43.288Z,97615.44
2022-12-13T23:13:03.389Z,97622.72
2022-12-13T23:16:07.250Z,97622.34
2022-12-13T23:19:40.259Z,97617.97
2022-12-13T23:22:33.877Z,97620.16
2022-12-13T23:25:35.836Z,97615.25
2022-12-13T23:28:38.769Z,97603.59
2022-12-13T23:35:33.820Z,97602.84
2022-12-13T23:38:36.349Z,97591.84
2022-12-13T23:41:38.475Z,97597.03
2022-12-13T23:44:40.575Z,97587.75
2022-12-13T23:47:42.348Z,97601.25
2022-12-13T23:50:44.294Z,97596.13
2022-12-13T23:53:46.811Z,97604.50
2022-12-13T23:56:48.770Z,97603.50
2022-12-13T23:59:51.925Z,97595.97
